createdAt,value
2022-08-19T00:00:36.619Z,99926.69
2022-08-19T00:01:39.355Z,99926.69
2022-08-19T00:02:49.932Z,99928.38
2022-08-19T00:03:52.503Z,99923.31
2022-08-19T00:04:56.977Z,99919.56
2022-08-19T00:05:58.790Z,99920.75
2022-08-19T00:07:03.258Z,99927.03
2022-08-19T00:08:05.071Z,99920.97
2022-08-19T00:09:10.507Z,99919.28
2022-08-19T00:10:13.161Z,99919.47
2022-08-19T00:11:18.773Z,99918.63
2022-08-19T00:12:28.092Z,99914.19
2022-08-19T00:13:32.648Z,99911.66
2022-08-19T00:14:34.483Z,99910.81
2022-08-19T00:15:38.975Z,99907.44
2022-08-19T00:16:42.317Z,99910.81
2022-08-19T00:17:47.098Z,99903.50
2022-08-19T00:18:49.157Z,99906.22
2022-08-19T00:19:54.625Z,99909.78
2022-08-19T00:20:56.593Z,99904.91
2022-08-19T00:22:00.970Z,99905.38
2022-08-19T00:23:05.136Z,99900.13
2022-08-19T00:24:10.888Z,99911.84
2022-08-19T00:25:12.835Z,99904.72
2022-08-19T00:26:20.222Z,99898.44
2022-08-19T00:27:26.073Z,99902.00
2022-08-19T00:28:31.209Z,99905.75
2022-08-19T00:29:33.044Z,99901.16
2022-08-19T00:30:37.811Z,99907.44
2022-08-19T00:31:39.860Z,99910.16
2022-08-19T00:32:44.342Z,99903.03
2022-08-19T00:33:46.149Z,99901.34
2022-08-19T00:34:50.531Z,99900.47
2022-08-19T00:35:55.976Z,99906.13
2022-08-19T00:37:00.889Z,99905.47
2022-08-19T00:38:02.798Z,99915.69
2022-08-19T00:39:07.426Z,99907.72
2022-08-19T00:40:09.389Z,99906.19
2022-08-19T00:41:14.444Z,99902.81
2022-08-19T00:42:16.733Z,99908.25
2022-08-19T00:43:26.850Z,99899.47
2022-08-19T00:44:29.638Z,99901.50
2022-08-19T00:45:37.036Z,99900.00
2022-08-19T00:46:39.982Z,99894.75
2022-08-19T00:47:44.395Z,99897.28
2022-08-19T00:48:46.284Z,99896.44
2022-08-19T00:49:54.974Z,99889.31
2022-08-19T00:50:56.890Z,99887.44
2022-08-19T00:52:06.186Z,99887.63
2022-08-19T00:53:08.278Z,99887.97
2022-08-19T00:54:12.877Z,99890.06
2022-08-19T00:55:20.593Z,99888.38
2022-08-19T00:56:25.070Z,99886.66
2022-08-19T00:57:39.283Z,99883.28
2022-08-19T00:58:44.351Z,99885.34
2022-08-19T00:59:56.390Z,99894.53
2022-08-19T01:01:08.767Z,99892.16
2022-08-19T01:02:10.648Z,99896.97
2022-08-19T01:03:16.061Z,99893.56
2022-08-19T01:04:21.195Z,99894.78
2022-08-19T01:05:28.502Z,99899.38
2022-08-19T01:06:32.578Z,99881.72
2022-08-19T01:07:38.223Z,99883.78
2022-08-19T01:08:42.906Z,99881.25
2022-08-19T01:09:44.772Z,99881.59
2022-08-19T01:10:50.399Z,99884.50
2022-08-19T01:11:52.288Z,99881.09
2022-08-19T01:12:56.871Z,99884.84
2022-08-19T01:13:58.811Z,99881.47
2022-08-19T01:15:03.925Z,99877.25
2022-08-19T01:16:07.355Z,99881.84
2022-08-19T01:17:13.339Z,99885.59
2022-08-19T01:18:15.555Z,99879.31
2022-08-19T01:19:22.782Z,99875.75
2022-08-19T01:20:24.977Z,99875.75
2022-08-19T01:21:41.890Z,99879.31
2022-08-19T01:22:51.226Z,99878.47
2022-08-19T01:23:55.774Z,99878.47
2022-08-19T01:24:57.658Z,99862.25
2022-08-19T01:26:03.746Z,99875.94
2022-08-19T01:27:06.171Z,99874.91
2022-08-19T01:28:18.873Z,99872.53
2022-08-19T01:29:38.547Z,99868.97
2022-08-19T01:30:44.519Z,99873.75
2022-08-19T01:31:55.454Z,99872.25
2022-08-19T01:32:57.465Z,99872.44
2022-08-19T01:34:01.918Z,99864.47
2022-08-19T01:35:04.734Z,99860.22
2022-08-19T01:36:13.796Z,99871.09
2022-08-19T01:37:16.108Z,99856.00
2022-08-19T01:38:32.609Z,99857.19
2022-08-19T01:39:35.284Z,99860.97
2022-08-19T01:40:41.012Z,99853.19
2022-08-19T01:41:42.872Z,99845.03
2022-08-19T01:42:48.595Z,99847.06
2022-08-19T01:44:13.942Z,99846.22
2022-08-19T01:45:15.790Z,99847.06
2022-08-19T01:46:20.107Z,99839.97
2022-08-19T01:47:27.922Z,99834.53
2022-08-19T01:48:33.634Z,99839.97
2022-08-19T01:49:38.030Z,99828.06
2022-08-19T01:50:39.862Z,99831.63
2022-08-19T01:51:44.248Z,99831.44
2022-08-19T01:52:46.083Z,99831.44
2022-08-19T01:53:52.124Z,99834.00
2022-08-19T01:54:54.024Z,99833.16
2022-08-19T01:55:58.444Z,99833.81
2022-08-19T01:57:05.121Z,99832.13
2022-08-19T01:58:10.218Z,99837.34
2022-08-19T01:59:13.755Z,99837.16
2022-08-19T02:00:19.199Z,99840.91
2022-08-19T02:01:21.228Z,99842.44
2022-08-19T02:02:26.171Z,99837.16
2022-08-19T02:03:28.044Z,99839.53
2022-08-19T02:04:32.455Z,99844.78
2022-08-19T02:05:34.315Z,99846.66
2022-08-19T02:06:39.135Z,99844.78
2022-08-19T02:07:41.388Z,99839.19
2022-08-19T02:08:47.120Z,99837.47
2022-08-19T02:09:49.669Z,99838.50
2022-08-19T02:10:54.126Z,99833.06
2022-08-19T02:11:56.881Z,99812.31
2022-08-19T02:13:01.337Z,99835.13
2022-08-19T02:14:04.497Z,99834.63
2022-08-19T02:15:09.166Z,99822.97
2022-08-19T02:16:11.072Z,99826.31
2022-08-19T02:17:15.581Z,99823.41
2022-08-19T02:18:17.409Z,99822.56
2022-08-19T02:19:21.883Z,99825.28
2022-08-19T02:20:23.745Z,99825.09
2022-08-19T02:21:28.182Z,99825.28
2022-08-19T02:22:30.015Z,99830.19
2022-08-19T02:23:35.059Z,99827.28
2022-08-19T02:24:36.954Z,99834.41
2022-08-19T02:25:42.002Z,99829.66
2022-08-19T02:26:43.829Z,99834.03
2022-08-19T02:27:48.272Z,99833.00
2022-08-19T02:28:51.744Z,99832.38
2022-08-19T02:29:56.202Z,99833.19
2022-08-19T02:30:58.023Z,99832.16
2022-08-19T02:32:02.421Z,99832.16
2022-08-19T02:33:04.352Z,99839.47
2022-08-19T02:34:08.858Z,99841.31
2022-08-19T02:35:12.103Z,99847.81
2022-08-19T02:36:20.680Z,99846.97
2022-08-19T02:37:38.127Z,99841.53
2022-08-19T02:38:42.811Z,99841.72
2022-08-19T02:39:48.913Z,99843.59
2022-08-19T02:41:04.167Z,99847.31
2022-08-19T02:42:08.745Z,99836.63
2022-08-19T02:43:10.685Z,99840.19
2022-08-19T02:44:29.283Z,99839.53
2022-08-19T02:45:33.539Z,99826.31
2022-08-19T02:46:38.181Z,99841.75
2022-08-19T02:47:40.050Z,99842.78
2022-08-19T02:48:44.629Z,99832.13
2022-08-19T02:49:46.779Z,99834.84
2022-08-19T02:50:56.455Z,99837.34
2022-08-19T02:51:58.371Z,99834.44
2022-08-19T02:53:02.763Z,99833.81
2022-08-19T02:54:05.118Z,99837.16
2022-08-19T02:55:10.015Z,99824.25
2022-08-19T02:56:11.798Z,99826.31
2022-08-19T02:57:16.338Z,99822.56
2022-08-19T02:58:18.417Z,99829.03
2022-08-19T02:59:24.165Z,99822.56
2022-08-19T03:00:26.043Z,99834.28
2022-08-19T03:01:34.842Z,99833.44
2022-08-19T03:02:36.687Z,99833.06
2022-08-19T03:03:41.477Z,99831.38
2022-08-19T03:04:43.458Z,99830.34
2022-08-19T03:05:56.241Z,99827.66
2022-08-19T03:07:09.308Z,99823.41
2022-08-19T03:08:16.138Z,99829.69
2022-08-19T03:09:18.953Z,99827.34
2022-08-19T03:10:23.599Z,99830.03
2022-08-19T03:11:26.904Z,99825.84
2022-08-19T03:12:31.397Z,99818.22
2022-08-19T03:13:33.566Z,99819.94
2022-08-19T03:14:38.293Z,99818.91
2022-08-19T03:15:40.815Z,99819.94
2022-08-19T03:16:49.613Z,99811.78
2022-08-19T03:17:51.492Z,99817.03
2022-08-19T03:18:56.131Z,99820.59
2022-08-19T03:19:57.939Z,99814.13
2022-08-19T03:21:02.435Z,99818.72
2022-08-19T03:22:05.224Z,99814.13
2022-08-19T03:23:09.719Z,99819.56
2022-08-19T03:24:11.801Z,99830.44
2022-08-19T03:25:16.829Z,99821.25
2022-08-19T03:26:18.721Z,99826.31
2022-08-19T03:27:23.442Z,99830.88
2022-08-19T03:28:25.359Z,99827.34
2022-08-19T03:29:31.775Z,99830.03
2022-08-19T03:30:33.691Z,99831.75
2022-08-19T03:31:43.352Z,99819.56
2022-08-19T03:32:52.980Z,99831.38
2022-08-19T03:33:59.007Z,99836.81
2022-08-19T03:35:03.551Z,99847.31
2022-08-19T03:36:12.632Z,99839.84
2022-08-19T03:37:14.474Z,99838.81
2022-08-19T03:38:18.894Z,99842.38
2022-08-19T03:39:20.687Z,99841.16
2022-08-19T03:40:25.155Z,99844.53
2022-08-19T03:41:34.343Z,99850.63
2022-08-19T03:42:49.683Z,99850.94
2022-08-19T03:43:52.111Z,99859.72
2022-08-19T03:44:56.637Z,99862.75
2022-08-19T03:46:05.768Z,99871.56
2022-08-19T03:47:10.193Z,99864.75
2022-08-19T03:48:12.035Z,99866.94
2022-08-19T03:49:18.318Z,99870.16
2022-08-19T03:50:23.119Z,99877.72
2022-08-19T03:51:31.125Z,99878.22
2022-08-19T03:52:35.678Z,99884.97
2022-08-19T03:53:37.508Z,99889.66
2022-08-19T03:54:43.117Z,99895.41
2022-08-19T03:55:45.544Z,99899.91
2022-08-19T03:56:51.389Z,99901.91
2022-08-19T03:57:57.360Z,99909.13
2022-08-19T03:59:03.418Z,99911.13
2022-08-19T04:00:13.704Z,99914.59
2022-08-19T04:01:19.720Z,99921.81
2022-08-19T04:02:24.178Z,99922.41
2022-08-19T04:03:27.816Z,99927.78
2022-08-19T04:04:32.555Z,99927.97
2022-08-19T04:05:34.445Z,99935.06
2022-08-19T04:06:40.044Z,99950.50
2022-08-19T04:07:42.088Z,99953.75
2022-08-19T04:08:46.954Z,99973.34
2022-08-19T04:09:49.319Z,99979.09
2022-08-19T04:10:53.712Z,99985.22
2022-08-19T04:11:57.936Z,99991.06
2022-08-19T04:13:02.565Z,99994.69
2022-08-19T04:14:04.564Z,99997.81
2022-08-19T04:15:09.489Z,100009.44
2022-08-19T04:16:11.612Z,100009.44
2022-08-19T04:17:16.172Z,100018.91
2022-08-19T04:18:18.174Z,100019.53
2022-08-19T04:19:24.029Z,100032.28
2022-08-19T04:20:25.832Z,100043.78
2022-08-19T04:21:30.383Z,100051.03
2022-08-19T04:22:32.227Z,100058.66
2022-08-19T04:23:37.508Z,100061.63
2022-08-19T04:24:46.509Z,100077.66
2022-08-19T04:25:50.901Z,100084.59
2022-08-19T04:26:52.787Z,100085.47
2022-08-19T04:27:57.230Z,100090.28
2022-08-19T04:29:00.106Z,100083.13
2022-08-19T04:30:04.516Z,100094.69
2022-08-19T04:31:06.361Z,100097.41
2022-08-19T04:32:10.798Z,100099.94
2022-08-19T04:33:13.323Z,100099.06
2022-08-19T04:34:18.756Z,100102.81
2022-08-19T04:35:24.462Z,100108.03
2022-08-19T04:36:34.173Z,100109.41
2022-08-19T04:37:36.025Z,100105.31
2022-08-19T04:38:40.538Z,100115.19
2022-08-19T04:39:58.832Z,100123.16
2022-08-19T04:41:19.689Z,100120.16
2022-08-19T04:42:36.565Z,100115.50
2022-08-19T04:43:41.776Z,100116.56
2022-08-19T04:44:46.317Z,100110.34
2022-08-19T04:45:56.380Z,100120.19
2022-08-19T04:46:58.712Z,100110.25
2022-08-19T04:48:26.254Z,100100.94
2022-08-19T04:49:28.376Z,100115.00
2022-08-19T04:50:30.352Z,100110.00
2022-08-19T04:51:35.378Z,100099.69
2022-08-19T04:52:37.208Z,100093.63
2022-08-19T04:53:41.746Z,100087.78
2022-08-19T04:54:43.662Z,100080.59
2022-08-19T04:55:48.043Z,100079.72
2022-08-19T04:56:51.084Z,100073.78
2022-08-19T04:57:55.526Z,100069.75
2022-08-19T04:58:57.664Z,100061.03
2022-08-19T05:00:02.249Z,100064.56
2022-08-19T05:01:04.816Z,100061.78
2022-08-19T05:02:10.306Z,100063.19
2022-08-19T05:03:12.117Z,100058.75
2022-08-19T05:04:16.553Z,100049.88
2022-08-19T05:05:23.353Z,100052.34
2022-08-19T05:06:27.788Z,100051.91
2022-08-19T05:07:29.655Z,100048.75
2022-08-19T05:08:34.879Z,100052.72
2022-08-19T05:09:57.862Z,100053.97
2022-08-19T05:11:01.182Z,100047.66
2022-08-19T05:12:03.217Z,100043.03
2022-08-19T05:13:10.141Z,100043.47
2022-08-19T05:14:13.498Z,100042.63
2022-08-19T05:15:18.032Z,100045.16
2022-08-19T05:16:21.327Z,100049.38
2022-08-19T05:17:27.975Z,100046.44
2022-08-19T05:18:47.942Z,100044.78
2022-08-19T05:20:04.781Z,100051.53
2022-08-19T05:21:23.045Z,100052.25
2022-08-19T05:22:36.723Z,100060.91
2022-08-19T05:23:41.552Z,100066.84
2022-08-19T05:25:02.409Z,100059.09
2022-08-19T05:26:07.935Z,100056.41
2022-08-19T05:27:09.765Z,100056.84
2022-08-19T05:28:14.202Z,100060.06
2022-08-19T05:29:16.847Z,100061.59
2022-08-19T05:30:33.471Z,100064.97
2022-08-19T05:31:45.907Z,100067.28
2022-08-19T05:32:47.740Z,100071.72
2022-08-19T05:33:52.214Z,100074.25
2022-08-19T05:34:54.054Z,100068.56
2022-08-19T05:35:58.529Z,100082.28
2022-08-19T05:37:00.949Z,100083.13
2022-08-19T05:38:05.648Z,100090.53
2022-08-19T05:39:08.558Z,100099.38
2022-08-19T05:40:14.314Z,100097.44
2022-08-19T05:41:16.164Z,100094.09
2022-08-19T05:42:21.589Z,100098.69
2022-08-19T05:43:23.500Z,100107.13
2022-08-19T05:44:32.367Z,100100.78
2022-08-19T05:45:34.535Z,100099.31
2022-08-19T05:46:40.728Z,100103.34
2022-08-19T05:47:46.101Z,100106.72
2022-08-19T05:48:47.920Z,100103.50
2022-08-19T05:49:53.531Z,100109.66
2022-08-19T05:50:55.338Z,100103.75
2022-08-19T05:52:00.541Z,100110.94
2022-08-19T05:53:04.930Z,100106.09
2022-08-19T05:54:08.326Z,100105.63
2022-08-19T05:55:13.245Z,100105.63
2022-08-19T05:56:16.998Z,100105.00
2022-08-19T05:57:21.993Z,100102.47
2022-08-19T05:58:25.082Z,100097.84
2022-08-19T05:59:32.613Z,100096.81
2022-08-19T06:00:34.958Z,100093.59
2022-08-19T06:01:39.656Z,100095.75
2022-08-19T06:02:44.486Z,100098.91
2022-08-19T06:03:46.494Z,100095.31
2022-08-19T06:04:50.876Z,100100.78
2022-08-19T06:05:53.424Z,100103.09
2022-08-19T06:06:59.330Z,100101.41
2022-08-19T06:08:01.175Z,100112.13
2022-08-19T06:09:09.038Z,100106.22
2022-08-19T06:10:11.784Z,100110.03
2022-08-19T06:11:17.864Z,100104.72
2022-08-19T06:12:31.700Z,100101.97
2022-08-19T06:13:33.531Z,100118.81
2022-08-19T06:14:41.959Z,100114.63
2022-08-19T06:15:45.413Z,100120.06
2022-08-19T06:16:49.852Z,100121.53
2022-08-19T06:17:53.173Z,100112.66
2022-08-19T06:19:00.044Z,100122.13
2022-08-19T06:20:02.447Z,100130.56
2022-08-19T06:21:06.901Z,100121.28
2022-08-19T06:22:13.106Z,100121.75
2022-08-19T06:23:16.265Z,100129.72
2022-08-19T06:24:24.442Z,100122.34
2022-08-19T06:25:30.529Z,100134.41
2022-08-19T06:26:32.563Z,100133.09
2022-08-19T06:27:42.075Z,100131.44
2022-08-19T06:28:50.380Z,100138.16
2022-08-19T06:29:55.141Z,100136.66
2022-08-19T06:30:56.991Z,100144.47
2022-08-19T06:32:02.343Z,100134.75
2022-08-19T06:33:04.150Z,100142.78
2022-08-19T06:34:08.794Z,100144.66
2022-08-19T06:35:10.788Z,100139.34
2022-08-19T06:36:28.620Z,100148.84
2022-08-19T06:37:33.030Z,100144.84
2022-08-19T06:38:34.902Z,100149.47
2022-08-19T06:39:40.575Z,100145.69
2022-08-19T06:42:10.996Z,100146.09
2022-08-19T06:43:16.938Z,100144.84
2022-08-19T06:44:20.877Z,100135.34
2022-08-19T06:45:34.536Z,100146.16
2022-08-19T06:46:37.529Z,100145.97
2022-08-19T06:47:49.423Z,100124.69
2022-08-19T06:48:54.364Z,100134.78
2022-08-19T06:50:03.551Z,100136.88
2022-08-19T06:51:08.785Z,100131.38
2022-08-19T06:52:18.072Z,100140.63
2022-08-19T06:53:20.277Z,100142.75
2022-08-19T06:54:30.937Z,100129.44
2022-08-19T06:55:33.362Z,100139.56
2022-08-19T06:56:38.134Z,100143.16
2022-08-19T06:57:39.999Z,100135.13
2022-08-19T06:58:44.440Z,100136.81
2022-08-19T06:59:48.894Z,100132.09
2022-08-19T07:00:51.722Z,100136.53
2022-08-19T07:01:56.428Z,100144.72
2022-08-19T07:03:03.015Z,100143.00
2022-08-19T07:04:13.695Z,100149.28
2022-08-19T07:05:18.255Z,100143.13
2022-08-19T07:06:44.007Z,100147.09
2022-08-19T07:07:49.196Z,100146.19
2022-08-19T07:08:52.870Z,100147.03
2022-08-19T07:10:01.973Z,100150.81
2022-08-19T07:11:10.850Z,100153.47
2022-08-19T07:12:16.966Z,100157.47
2022-08-19T07:13:18.787Z,100147.06
2022-08-19T07:14:24.127Z,100149.81
2022-08-19T07:15:25.955Z,100150.22
2022-08-19T07:16:30.577Z,100144.94
2022-08-19T07:17:34.516Z,100146.63
2022-08-19T07:18:39.199Z,100141.75
2022-08-19T07:19:45.743Z,100131.59
2022-08-19T07:20:51.854Z,100130.31
2022-08-19T07:21:57.278Z,100136.66
2022-08-19T07:22:59.327Z,100126.50
2022-08-19T07:24:06.782Z,100127.72
2022-08-19T07:25:14.266Z,100136.44
2022-08-19T07:26:17.430Z,100134.28
2022-08-19T07:27:25.097Z,100127.72
2022-08-19T07:28:27.818Z,100134.75
2022-08-19T07:29:34.400Z,100127.72
2022-08-19T07:30:37.754Z,100131.97
2022-08-19T07:31:43.424Z,100128.56
2022-08-19T07:32:45.576Z,100132.63
2022-08-19T07:33:51.226Z,100127.13
2022-08-19T07:34:56.477Z,100120.53
2022-08-19T07:36:01.150Z,100129.03
2022-08-19T07:37:06.140Z,100133.22
2022-08-19T07:38:08.527Z,100126.66
2022-08-19T07:39:18.475Z,100127.09
2022-08-19T07:40:20.361Z,100128.09
2022-08-19T07:41:26.455Z,100128.09
2022-08-19T07:42:31.097Z,100128.47
2022-08-19T07:43:34.772Z,100126.34
2022-08-19T07:45:43.418Z,100134.81
2022-08-19T07:46:51.567Z,100136.50
2022-08-19T07:47:57.848Z,100142.00
2022-08-19T07:48:59.890Z,100132.28
2022-08-19T07:50:05.426Z,100135.59
2022-08-19T07:51:14.357Z,100136.50
2022-08-19T07:52:21.100Z,100147.06
2022-08-19T07:53:23.375Z,100133.19
2022-08-19T07:54:28.471Z,100138.19
2022-08-19T07:55:42.454Z,100129.50
2022-08-19T07:56:48.070Z,100135.44
2022-08-19T07:57:49.900Z,100130.34
2022-08-19T08:00:23.165Z,100130.25
2022-08-19T08:01:30.297Z,100125.75
2022-08-19T08:02:32.224Z,100121.84
2022-08-19T08:03:49.182Z,100131.13
2022-08-19T08:05:06.149Z,100128.16
2022-08-19T08:06:23.153Z,100120.97
2022-08-19T08:07:40.022Z,100136.53
2022-08-19T08:09:03.289Z,100125.88
2022-08-19T08:10:21.101Z,100126.66
2022-08-19T08:11:23.965Z,100133.84
2022-08-19T08:12:34.658Z,100133.34
2022-08-19T08:13:37.009Z,100132.81
2022-08-19T08:14:47.070Z,100139.56
2022-08-19T08:15:48.900Z,100142.22
2022-08-19T08:16:56.642Z,100142.38
2022-08-19T08:18:03.835Z,100138.06
2022-08-19T08:19:07.224Z,100139.31
2022-08-19T08:20:19.259Z,100133.41
2022-08-19T08:21:21.113Z,100147.72
2022-08-19T08:22:38.335Z,100138.53
2022-08-19T08:23:43.929Z,100138.13
2022-08-19T08:24:45.826Z,100147.41
2022-08-19T08:25:50.274Z,100148.13
2022-08-19T08:26:52.339Z,100143.13
2022-08-19T08:28:02.390Z,100142.63
2022-08-19T08:29:12.310Z,100147.22
2022-08-19T08:30:19.547Z,100143.69
2022-08-19T08:31:24.514Z,100141.91
2022-08-19T08:32:26.400Z,100152.91
2022-08-19T08:33:33.664Z,100138.97
2022-08-19T08:34:38.074Z,100138.53
2022-08-19T08:35:43.252Z,100150.78
2022-08-19T08:36:46.308Z,100148.13
2022-08-19T08:37:51.491Z,100147.47
2022-08-19T08:40:00.350Z,100141.50
2022-08-19T08:41:07.764Z,100152.31
2022-08-19T08:42:16.900Z,100155.66
2022-08-19T08:43:32.857Z,100154.72
2022-08-19T08:44:37.713Z,100154.28
2022-08-19T08:45:44.435Z,100161.81
2022-08-19T08:46:48.098Z,100160.97
2022-08-19T08:47:53.296Z,100160.06
2022-08-19T08:48:55.778Z,100159.09
2022-08-19T08:50:07.900Z,100159.84
2022-08-19T08:51:11.478Z,100168.25
2022-08-19T08:52:24.626Z,100168.84
2022-08-19T08:53:35.687Z,100164.34
2022-08-19T08:54:54.846Z,100160.84
2022-08-19T08:56:01.353Z,100165.91
2022-08-19T08:57:11.540Z,100156.59
2022-08-19T08:58:16.903Z,100150.44
2022-08-19T08:59:37.531Z,100165.91
2022-08-19T09:00:41.292Z,100155.28
2022-08-19T09:01:45.738Z,100158.97
2022-08-19T09:02:50.989Z,100156.84
2022-08-19T09:03:56.041Z,100151.31
2022-08-19T09:05:05.059Z,100161.25
2022-08-19T09:06:25.912Z,100159.81
2022-08-19T09:07:35.855Z,100166.94
2022-08-19T09:08:41.212Z,100168.50
2022-08-19T09:09:56.101Z,100155.31
2022-08-19T09:10:58.630Z,100164.28
2022-08-19T09:12:26.728Z,100164.28
2022-08-19T09:13:37.668Z,100162.50
2022-08-19T09:14:51.259Z,100173.41
2022-08-19T09:15:58.390Z,100162.84
2022-08-19T09:17:00.434Z,100172.31
2022-08-19T09:18:07.169Z,100176.16
2022-08-19T09:19:09.635Z,100187.78
2022-08-19T09:20:14.450Z,100181.31
2022-08-19T09:21:16.600Z,100179.41
2022-08-19T09:22:25.545Z,100188.66
2022-08-19T09:23:30.927Z,100182.53
2022-08-19T09:24:32.731Z,100189.28
2022-08-19T09:25:37.128Z,100179.22
2022-08-19T09:26:48.605Z,100187.13
2022-08-19T09:28:02.320Z,100188.47
2022-08-19T09:29:06.234Z,100184.50
2022-08-19T09:30:11.654Z,100188.81
2022-08-19T09:31:20.689Z,100185.31
2022-08-19T09:32:26.581Z,100183.16
2022-08-19T09:33:32.149Z,100175.84
2022-08-19T09:34:37.776Z,100175.94
2022-08-19T09:35:50.014Z,100180.88
2022-08-19T09:37:00.403Z,100178.22
2022-08-19T09:38:04.838Z,100178.84
2022-08-19T09:39:14.896Z,100178.59
2022-08-19T09:40:21.552Z,100185.91
2022-08-19T09:41:27.358Z,100193.97
2022-08-19T09:42:35.308Z,100193.72
2022-08-19T09:43:44.293Z,100196.97
2022-08-19T09:44:49.651Z,100202.00
2022-08-19T09:45:54.290Z,100199.38
2022-08-19T09:46:58.689Z,100189.50
2022-08-19T09:48:00.565Z,100199.25
2022-08-19T09:49:07.248Z,100185.81
2022-08-19T09:50:10.027Z,100186.97
2022-08-19T09:51:16.617Z,100191.41
2022-08-19T09:52:21.641Z,100183.25
2022-08-19T09:53:25.647Z,100175.69
2022-08-19T09:54:30.172Z,100183.25
2022-08-19T09:55:32.762Z,100181.22
2022-08-19T09:56:37.234Z,100174.63
2022-08-19T09:57:39.090Z,100179.28
2022-08-19T09:58:43.836Z,100185.41
2022-08-19T09:59:49.333Z,100173.88
2022-08-19T10:00:51.818Z,100178.56
2022-08-19T10:01:56.272Z,100173.88
2022-08-19T10:03:08.629Z,100168.50
2022-08-19T10:04:19.666Z,100164.56
2022-08-19T10:05:37.498Z,100164.31
2022-08-19T10:06:45.564Z,100174.97
2022-08-19T10:07:48.914Z,100161.84
2022-08-19T10:08:53.896Z,100164.13
2022-08-19T10:09:55.750Z,100170.25
2022-08-19T10:11:28.340Z,100175.53
2022-08-19T10:12:25.680Z,100170.34
2022-08-19T10:13:29.466Z,100168.16
2022-08-19T10:14:34.131Z,100161.56
2022-08-19T10:15:47.415Z,100170.44
2022-08-19T10:16:53.140Z,100161.44
2022-08-19T10:17:55.272Z,100156.16
2022-08-19T10:19:00.353Z,100162.28
2022-08-19T10:20:08.062Z,100163.94
2022-08-19T10:21:22.707Z,100164.63
2022-08-19T10:22:27.378Z,100170.88
2022-08-19T10:23:33.617Z,100174.81
2022-08-19T10:24:35.782Z,100165.44
2022-08-19T10:25:40.364Z,100171.56
2022-08-19T10:26:57.196Z,100173.00
2022-08-19T10:28:04.653Z,100174.41
2022-08-19T10:29:32.768Z,100168.28
2022-08-19T10:30:39.414Z,100166.03
2022-08-19T10:32:00.534Z,100159.69
2022-08-19T10:33:11.007Z,100152.22
2022-08-19T10:34:27.090Z,100161.00
2022-08-19T10:35:33.496Z,100163.53
2022-08-19T10:36:56.286Z,100163.03
2022-08-19T10:38:02.542Z,100162.88
2022-08-19T10:39:09.530Z,100164.91
2022-08-19T10:40:12.478Z,100163.28
2022-08-19T10:41:18.438Z,100163.41
2022-08-19T10:42:20.301Z,100157.53
2022-08-19T10:43:24.706Z,100162.91
2022-08-19T10:44:32.657Z,100167.06
2022-08-19T10:45:38.157Z,100161.06
2022-08-19T10:46:56.864Z,100148.31
2022-08-19T10:48:01.672Z,100141.63
2022-08-19T10:49:07.695Z,100162.66
2022-08-19T10:50:28.764Z,100159.72
2022-08-19T10:51:48.127Z,100156.72
2022-08-19T10:52:50.947Z,100147.81
2022-08-19T10:53:55.325Z,100152.00
2022-08-19T10:55:13.038Z,100155.03
2022-08-19T10:56:29.991Z,100158.38
2022-08-19T10:57:52.376Z,100152.84
2022-08-19T10:58:58.977Z,100151.88
2022-08-19T11:00:00.784Z,100153.53
2022-08-19T11:01:05.223Z,100138.59
2022-08-19T11:02:13.038Z,100137.84
2022-08-19T11:03:14.901Z,100153.44
2022-08-19T11:04:19.753Z,100148.00
2022-08-19T11:05:24.261Z,100149.69
2022-08-19T11:06:29.021Z,100152.56
2022-08-19T11:07:30.895Z,100135.63
2022-08-19T11:08:35.981Z,100147.53
2022-08-19T11:09:41.670Z,100144.84
2022-08-19T11:10:43.811Z,100143.22
2022-08-19T11:11:55.151Z,100130.59
2022-08-19T11:12:57.264Z,100138.03
2022-08-19T11:14:01.893Z,100145.50
2022-08-19T11:15:04.288Z,100133.34
2022-08-19T11:16:18.549Z,100139.97
2022-08-19T11:17:20.552Z,100130.09
2022-08-19T11:18:25.064Z,100140.63
2022-08-19T11:19:26.918Z,100129.06
2022-08-19T11:20:31.617Z,100131.06
2022-08-19T11:21:34.999Z,100124.19
2022-08-19T11:22:41.667Z,100129.47
2022-08-19T11:23:44.539Z,100120.31
2022-08-19T11:24:49.036Z,100118.13
2022-08-19T11:25:50.825Z,100116.53
2022-08-19T11:26:58.651Z,100131.38
2022-08-19T11:28:00.496Z,100123.66
2022-08-19T11:29:04.928Z,100117.28
2022-08-19T11:30:08.416Z,100118.56
2022-08-19T11:31:18.444Z,100115.81
2022-08-19T11:32:20.263Z,100110.88
2022-08-19T11:33:27.483Z,100115.47
2022-08-19T11:34:29.486Z,100107.50
2022-08-19T11:35:34.046Z,100104.25
2022-08-19T11:36:41.563Z,100112.44
2022-08-19T11:37:43.363Z,100102.47
2022-08-19T11:38:49.446Z,100099.56
2022-08-19T11:39:54.633Z,100089.59
2022-08-19T11:40:57.343Z,100104.00
2022-08-19T11:42:02.522Z,100100.41
2022-08-19T11:43:04.402Z,100092.69
2022-08-19T11:44:08.965Z,100090.16
2022-08-19T11:45:11.629Z,100095.63
2022-08-19T11:46:16.769Z,100095.06
2022-08-19T11:47:18.559Z,100098.38
2022-08-19T11:48:23.800Z,100097.88
2022-08-19T11:49:25.635Z,100097.88
2022-08-19T11:50:30.019Z,100094.63
2022-08-19T11:51:32.535Z,100093.53
2022-08-19T11:52:37.567Z,100096.28
2022-08-19T11:53:39.563Z,100088.50
2022-08-19T11:54:43.924Z,100091.59
2022-08-19T11:55:45.954Z,100087.50
2022-08-19T11:56:50.393Z,100065.53
2022-08-19T11:57:52.288Z,100086.38
2022-08-19T11:58:57.753Z,100087.06
2022-08-19T11:59:59.638Z,100085.75
2022-08-19T12:01:04.108Z,100070.00
2022-08-19T12:02:05.965Z,100089.47
2022-08-19T12:03:10.589Z,100086.19
2022-08-19T12:04:12.575Z,100081.75
2022-08-19T12:05:17.089Z,100082.88
2022-08-19T12:06:20.022Z,100078.56
2022-08-19T12:07:25.736Z,100071.97
2022-08-19T12:08:27.700Z,100076.81
2022-08-19T12:09:35.350Z,100076.03
2022-08-19T12:10:37.137Z,100076.81
2022-08-19T12:11:42.240Z,100079.31
2022-08-19T12:12:47.390Z,100078.28
2022-08-19T12:14:00.340Z,100067.72
2022-08-19T12:15:02.235Z,100069.34
2022-08-19T12:16:13.675Z,100066.06
2022-08-19T12:17:15.455Z,100074.94
2022-08-19T12:18:19.908Z,100061.16
2022-08-19T12:19:22.352Z,100066.47
2022-08-19T12:20:27.413Z,100058.41
2022-08-19T12:21:29.651Z,100056.66
2022-08-19T12:22:34.078Z,100055.81
2022-08-19T12:23:38.506Z,100059.16
2022-08-19T12:24:43.014Z,100056.72
2022-08-19T12:25:49.509Z,100046.91
2022-08-19T12:26:55.036Z,100053.63
2022-08-19T12:27:57.780Z,100064.53
2022-08-19T12:29:02.944Z,100062.63
2022-08-19T12:30:05.507Z,100053.81
2022-08-19T12:31:10.158Z,100059.69
2022-08-19T12:32:14.574Z,100064.63
2022-08-19T12:33:16.374Z,100052.22
2022-08-19T12:34:21.166Z,100066.34
2022-08-19T12:35:25.732Z,100052.47
2022-08-19T12:36:27.617Z,100051.03
2022-08-19T12:37:33.581Z,100041.56
2022-08-19T12:38:35.771Z,100051.91
2022-08-19T12:39:41.000Z,100044.44
2022-08-19T12:40:46.009Z,100047.81
2022-08-19T12:41:54.501Z,100052.25
2022-08-19T12:43:00.207Z,100045.00